sensor_id;sensor_type;location;lat;lon;timestamp;P1;durP1;ratioP1;P2;durP2;ratioP2
58468;SDS011;44257;44.804;10.220;2023-07-22T00:01:01;8.63;;;5.18;;
58468;SDS011;44257;44.804;10.220;2023-07-22T00:03:27;8.68;;;4.43;;
58468;SDS011;44257;44.804;10.220;2023-07-22T00:06:04;9.20;;;5.38;;
58468;SDS011;44257;44.804;10.220;2023-07-22T00:08:34;9.98;;;5.10;;
58468;SDS011;44257;44.804;10.220;2023-07-22T00:11:00;7.32;;;4.22;;
58468;SDS011;44257;44.804;10.220;2023-07-22T00:13:27;6.95;;;4.75;;
58468;SDS011;44257;44.804;10.220;2023-07-22T00:15:53;8.98;;;5.50;;
58468;SDS011;44257;44.804;10.220;2023-07-22T00:18:19;10.30;;;5.65;;
58468;SDS011;44257;44.804;10.220;2023-07-22T00:20:46;11.00;;;6.13;;
58468;SDS011;44257;44.804;10.220;2023-07-22T00:23:12;8.70;;;5.22;;
58468;SDS011;44257;44.804;10.220;2023-07-22T00:25:38;7.90;;;5.35;;
58468;SDS011;44257;44.804;10.220;2023-07-22T00:28:04;8.13;;;5.80;;
58468;SDS011;44257;44.804;10.220;2023-07-22T00:30:29;11.60;;;5.60;;
58468;SDS011;44257;44.804;10.220;2023-07-22T00:32:55;11.15;;;6.43;;
58468;SDS011;44257;44.804;10.220;2023-07-22T00:35:21;10.18;;;6.43;;
58468;SDS011;44257;44.804;10.220;2023-07-22T00:37:47;7.75;;;5.22;;
58468;SDS011;44257;44.804;10.220;2023-07-22T00:40:13;9.57;;;5.47;;
58468;SDS011;44257;44.804;10.220;2023-07-22T00:42:39;8.98;;;6.10;;
58468;SDS011;44257;44.804;10.220;2023-07-22T00:45:06;9.35;;;6.40;;
58468;SDS011;44257;44.804;10.220;2023-07-22T00:47:33;8.70;;;6.43;;
58468;SDS011;44257;44.804;10.220;2023-07-22T00:50:01;8.77;;;6.40;;
58468;SDS011;44257;44.804;10.220;2023-07-22T00:52:28;8.93;;;6.38;;
58468;SDS011;44257;44.804;10.220;2023-07-22T00:54:55;8.77;;;5.57;;
58468;SDS011;44257;44.804;10.220;2023-07-22T00:57:22;8.13;;;6.07;;
58468;SDS011;44257;44.804;10.220;2023-07-22T00:59:48;9.32;;;6.57;;
58468;SDS011;44257;44.804;10.220;2023-07-22T01:02:14;8.95;;;6.00;;
58468;SDS011;44257;44.804;10.220;2023-07-22T01:04:40;9.57;;;6.25;;
58468;SDS011;44257;44.804;10.220;2023-07-22T01:07:06;10.32;;;6.10;;
58468;SDS011;44257;44.804;10.220;2023-07-22T01:09:36;7.55;;;5.20;;
58468;SDS011;44257;44.804;10.220;2023-07-22T01:12:03;7.75;;;4.97;;
58468;SDS011;44257;44.804;10.220;2023-07-22T01:14:38;6.63;;;4.72;;
58468;SDS011;44257;44.804;10.220;2023-07-22T01:17:06;7.55;;;5.20;;
58468;SDS011;44257;44.804;10.220;2023-07-22T01:19:34;7.03;;;4.78;;
58468;SDS011;44257;44.804;10.220;2023-07-22T01:22:01;7.88;;;5.95;;
58468;SDS011;44257;44.804;10.220;2023-07-22T01:24:33;7.10;;;5.40;;
58468;SDS011;44257;44.804;10.220;2023-07-22T01:26:59;9.27;;;5.22;;
58468;SDS011;44257;44.804;10.220;2023-07-22T01:29:26;7.93;;;5.63;;
58468;SDS011;44257;44.804;10.220;2023-07-22T01:31:53;7.72;;;5.47;;
58468;SDS011;44257;44.804;10.220;2023-07-22T01:34:20;8.27;;;5.53;;
58468;SDS011;44257;44.804;10.220;2023-07-22T01:36:47;7.47;;;5.00;;
58468;SDS011;44257;44.804;10.220;2023-07-22T01:39:14;34.38;;;6.30;;
58468;SDS011;44257;44.804;10.220;2023-07-22T01:41:40;7.85;;;5.45;;
58468;SDS011;44257;44.804;10.220;2023-07-22T01:44:06;11.43;;;6.75;;
58468;SDS011;44257;44.804;10.220;2023-07-22T01:46:33;9.48;;;6.22;;
58468;SDS011;44257;44.804;10.220;2023-07-22T01:49:01;8.30;;;6.50;;
58468;SDS011;44257;44.804;10.220;2023-07-22T01:51:27;10.98;;;6.43;;
58468;SDS011;44257;44.804;10.220;2023-07-22T01:53:53;7.57;;;5.32;;
58468;SDS011;44257;44.804;10.220;2023-07-22T01:56:22;8.60;;;6.28;;
58468;SDS011;44257;44.804;10.220;2023-07-22T01:58:48;9.52;;;5.70;;
58468;SDS011;44257;44.804;10.220;2023-07-22T02:01:14;7.82;;;5.70;;
58468;SDS011;44257;44.804;10.220;2023-07-22T02:03:41;9.48;;;6.65;;
58468;SDS011;44257;44.804;10.220;2023-07-22T02:06:07;8.98;;;6.03;;
58468;SDS011;44257;44.804;10.220;2023-07-22T02:08:34;9.57;;;6.10;;
58468;SDS011;44257;44.804;10.220;2023-07-22T02:11:04;7.88;;;6.07;;
58468;SDS011;44257;44.804;10.220;2023-07-22T02:13:31;10.23;;;6.57;;
58468;SDS011;44257;44.804;10.220;2023-07-22T02:15:59;9.65;;;6.63;;
58468;SDS011;44257;44.804;10.220;2023-07-22T02:18:25;9.68;;;6.60;;
58468;SDS011;44257;44.804;10.220;2023-07-22T02:20:52;9.55;;;6.68;;
58468;SDS011;44257;44.804;10.220;2023-07-22T02:23:22;9.02;;;6.47;;
58468;SDS011;44257;44.804;10.220;2023-07-22T02:25:52;8.80;;;6.68;;
58468;SDS011;44257;44.804;10.220;2023-07-22T02:28:19;9.50;;;7.35;;
58468;SDS011;44257;44.804;10.220;2023-07-22T02:30:53;7.90;;;6.55;;
58468;SDS011;44257;44.804;10.220;2023-07-22T02:33:19;9.02;;;7.18;;
58468;SDS011;44257;44.804;10.220;2023-07-22T02:35:47;9.60;;;6.57;;
58468;SDS011;44257;44.804;10.220;2023-07-22T02:38:14;9.40;;;6.30;;
58468;SDS011;44257;44.804;10.220;2023-07-22T02:40:40;9.23;;;6.75;;
58468;SDS011;44257;44.804;10.220;2023-07-22T02:43:06;10.27;;;6.47;;
58468;SDS011;44257;44.804;10.220;2023-07-22T02:45:36;8.23;;;6.40;;
58468;SDS011;44257;44.804;10.220;2023-07-22T02:48:02;9.68;;;6.68;;
58468;SDS011;44257;44.804;10.220;2023-07-22T02:50:28;8.70;;;6.93;;
58468;SDS011;44257;44.804;10.220;2023-07-22T02:52:54;10.82;;;6.78;;
58468;SDS011;44257;44.804;10.220;2023-07-22T02:55:21;8.50;;;6.75;;
58468;SDS011;44257;44.804;10.220;2023-07-22T02:57:48;9.98;;;7.38;;
58468;SDS011;44257;44.804;10.220;2023-07-22T03:00:15;9.32;;;6.70;;
58468;SDS011;44257;44.804;10.220;2023-07-22T03:02:52;10.93;;;7.50;;
58468;SDS011;44257;44.804;10.220;2023-07-22T03:05:21;10.00;;;6.68;;
58468;SDS011;44257;44.804;10.220;2023-07-22T03:07:47;9.40;;;7.38;;
58468;SDS011;44257;44.804;10.220;2023-07-22T03:10:12;9.75;;;7.20;;
58468;SDS011;44257;44.804;10.220;2023-07-22T03:12:39;8.27;;;6.60;;
58468;SDS011;44257;44.804;10.220;2023-07-22T03:15:05;10.20;;;7.10;;
58468;SDS011;44257;44.804;10.220;2023-07-22T03:17:34;10.88;;;7.63;;
58468;SDS011;44257;44.804;10.220;2023-07-22T03:20:03;9.50;;;7.50;;
58468;SDS011;44257;44.804;10.220;2023-07-22T03:22:50;9.18;;;6.97;;
58468;SDS011;44257;44.804;10.220;2023-07-22T03:25:16;10.05;;;7.57;;
58468;SDS011;44257;44.804;10.220;2023-07-22T03:27:43;10.95;;;7.70;;
58468;SDS011;44257;44.804;10.220;2023-07-22T03:30:11;9.73;;;6.90;;
58468;SDS011;44257;44.804;10.220;2023-07-22T03:32:43;10.88;;;7.72;;
58468;SDS011;44257;44.804;10.220;2023-07-22T03:35:12;8.93;;;7.50;;
58468;SDS011;44257;44.804;10.220;2023-07-22T03:37:39;9.15;;;7.72;;
58468;SDS011;44257;44.804;10.220;2023-07-22T03:40:06;9.88;;;7.20;;
58468;SDS011;44257;44.804;10.220;2023-07-22T03:42:46;10.48;;;7.72;;
58468;SDS011;44257;44.804;10.220;2023-07-22T03:45:13;11.50;;;8.15;;
58468;SDS011;44257;44.804;10.220;2023-07-22T03:47:39;9.50;;;8.25;;
58468;SDS011;44257;44.804;10.220;2023-07-22T03:50:05;10.15;;;8.35;;
58468;SDS011;44257;44.804;10.220;2023-07-22T03:52:32;10.25;;;8.32;;
58468;SDS011;44257;44.804;10.220;2023-07-22T03:54:58;12.30;;;8.55;;
58468;SDS011;44257;44.804;10.220;2023-07-22T03:57:27;13.52;;;9.27;;
58468;SDS011;44257;44.804;10.220;2023-07-22T03:59:54;12.30;;;9.30;;
58468;SDS011;44257;44.804;10.220;2023-07-22T04:02:20;10.75;;;8.13;;
58468;SDS011;44257;44.804;10.220;2023-07-22T04:04:46;9.60;;;7.30;;
58468;SDS011;44257;44.804;10.220;2023-07-22T04:07:12;10.32;;;7.70;;
58468;SDS011;44257;44.804;10.220;2023-07-22T04:09:38;11.30;;;7.53;;
58468;SDS011;44257;44.804;10.220;2023-07-22T04:12:06;13.32;;;8.25;;
58468;SDS011;44257;44.804;10.220;2023-07-22T04:14:32;13.32;;;8.32;;
58468;SDS011;44257;44.804;10.220;2023-07-22T04:16:58;8.90;;;7.93;;
58468;SDS011;44257;44.804;10.220;2023-07-22T04:19:24;10.10;;;7.82;;
58468;SDS011;44257;44.804;10.220;2023-07-22T04:21:51;10.07;;;7.63;;
58468;SDS011;44257;44.804;10.220;2023-07-22T04:24:17;12.98;;;7.50;;
58468;SDS011;44257;44.804;10.220;2023-07-22T04:26:44;12.38;;;7.88;;
58468;SDS011;44257;44.804;10.220;2023-07-22T04:29:10;11.60;;;8.50;;
58468;SDS011;44257;44.804;10.220;2023-07-22T04:31:37;10.43;;;8.25;;
58468;SDS011;44257;44.804;10.220;2023-07-22T04:34:04;10.73;;;8.30;;
58468;SDS011;44257;44.804;10.220;2023-07-22T04:36:31;10.25;;;8.02;;
58468;SDS011;44257;44.804;10.220;2023-07-22T04:38:57;11.95;;;7.80;;
58468;SDS011;44257;44.804;10.220;2023-07-22T04:41:23;9.88;;;7.85;;
58468;SDS011;44257;44.804;10.220;2023-07-22T04:43:49;10.32;;;8.20;;
58468;SDS011;44257;44.804;10.220;2023-07-22T04:46:16;10.07;;;7.57;;
58468;SDS011;44257;44.804;10.220;2023-07-22T04:48:42;12.30;;;8.90;;
58468;SDS011;44257;44.804;10.220;2023-07-22T04:51:08;12.18;;;8.52;;
58468;SDS011;44257;44.804;10.220;2023-07-22T04:53:34;14.05;;;9.30;;
58468;SDS011;44257;44.804;10.220;2023-07-22T04:56:00;12.60;;;9.32;;
58468;SDS011;44257;44.804;10.220;2023-07-22T04:58:27;13.95;;;9.90;;
58468;SDS011;44257;44.804;10.220;2023-07-22T05:00:53;12.50;;;9.73;;
58468;SDS011;44257;44.804;10.220;2023-07-22T05:03:19;11.80;;;8.85;;
58468;SDS011;44257;44.804;10.220;2023-07-22T05:05:45;12.55;;;10.25;;
58468;SDS011;44257;44.804;10.220;2023-07-22T05:08:11;11.52;;;8.82;;
58468;SDS011;44257;44.804;10.220;2023-07-22T05:10:37;11.93;;;8.70;;
58468;SDS011;44257;44.804;10.220;2023-07-22T05:13:04;11.70;;;9.15;;
58468;SDS011;44257;44.804;10.220;2023-07-22T05:15:30;13.48;;;10.07;;
58468;SDS011;44257;44.804;10.220;2023-07-22T05:17:56;12.88;;;9.02;;
58468;SDS011;44257;44.804;10.220;2023-07-22T05:20:22;13.38;;;9.10;;
58468;SDS011;44257;44.804;10.220;2023-07-22T05:22:48;9.98;;;8.82;;
58468;SDS011;44257;44.804;10.220;2023-07-22T05:25:14;12.45;;;8.63;;
58468;SDS011;44257;44.804;10.220;2023-07-22T05:27:40;12.60;;;8.77;;
58468;SDS011;44257;44.804;10.220;2023-07-22T05:30:07;12.23;;;9.05;;
58468;SDS011;44257;44.804;10.220;2023-07-22T05:32:33;12.27;;;8.55;;
58468;SDS011;44257;44.804;10.220;2023-07-22T05:34:59;15.73;;;9.38;;
58468;SDS011;44257;44.804;10.220;2023-07-22T05:37:27;13.65;;;9.48;;
58468;SDS011;44257;44.804;10.220;2023-07-22T05:39:53;17.52;;;9.43;;
58468;SDS011;44257;44.804;10.220;2023-07-22T05:42:19;11.85;;;9.00;;
58468;SDS011;44257;44.804;10.220;2023-07-22T05:44:45;16.83;;;9.77;;
58468;SDS011;44257;44.804;10.220;2023-07-22T05:47:11;12.18;;;9.13;;
58468;SDS011;44257;44.804;10.220;2023-07-22T05:49:36;14.60;;;9.15;;
58468;SDS011;44257;44.804;10.220;2023-07-22T05:52:02;15.35;;;10.55;;
58468;SDS011;44257;44.804;10.220;2023-07-22T05:54:29;12.20;;;8.90;;
58468;SDS011;44257;44.804;10.220;2023-07-22T05:56:55;14.63;;;9.38;;
58468;SDS011;44257;44.804;10.220;2023-07-22T05:59:21;15.45;;;10.63;;
58468;SDS011;44257;44.804;10.220;2023-07-22T06:01:46;22.90;;;10.40;;
58468;SDS011;44257;44.804;10.220;2023-07-22T06:04:12;14.85;;;10.55;;
58468;SDS011;44257;44.804;10.220;2023-07-22T06:06:38;14.60;;;10.05;;
58468;SDS011;44257;44.804;10.220;2023-07-22T06:09:04;16.17;;;10.02;;
58468;SDS011;44257;44.804;10.220;2023-07-22T06:11:30;15.23;;;10.60;;
58468;SDS011;44257;44.804;10.220;2023-07-22T06:13:56;16.10;;;10.25;;
58468;SDS011;44257;44.804;10.220;2023-07-22T06:16:22;16.73;;;10.18;;
58468;SDS011;44257;44.804;10.220;2023-07-22T06:18:48;16.25;;;11.43;;
58468;SDS011;44257;44.804;10.220;2023-07-22T06:21:13;17.00;;;10.20;;
58468;SDS011;44257;44.804;10.220;2023-07-22T06:23:40;14.07;;;9.88;;
58468;SDS011;44257;44.804;10.220;2023-07-22T06:26:06;15.18;;;9.73;;
58468;SDS011;44257;44.804;10.220;2023-07-22T06:28:32;14.02;;;10.00;;
58468;SDS011;44257;44.804;10.220;2023-07-22T06:30:58;17.17;;;10.30;;
58468;SDS011;44257;44.804;10.220;2023-07-22T06:33:24;16.85;;;10.63;;
58468;SDS011;44257;44.804;10.220;2023-07-22T06:35:50;15.43;;;10.38;;
58468;SDS011;44257;44.804;10.220;2023-07-22T06:38:16;15.65;;;11.48;;
58468;SDS011;44257;44.804;10.220;2023-07-22T06:40:41;16.38;;;11.00;;
58468;SDS011;44257;44.804;10.220;2023-07-22T06:43:07;15.73;;;9.82;;
58468;SDS011;44257;44.804;10.220;2023-07-22T06:45:33;14.18;;;9.70;;
58468;SDS011;44257;44.804;10.220;2023-07-22T06:47:59;15.00;;;10.18;;
58468;SDS011;44257;44.804;10.220;2023-07-22T06:50:25;16.17;;;9.90;;
58468;SDS011;44257;44.804;10.220;2023-07-22T06:52:51;13.73;;;10.38;;
58468;SDS011;44257;44.804;10.220;2023-07-22T06:55:16;14.40;;;10.02;;
58468;SDS011;44257;44.804;10.220;2023-07-22T06:57:42;17.33;;;11.35;;
58468;SDS011;44257;44.804;10.220;2023-07-22T07:00:09;16.33;;;11.77;;
58468;SDS011;44257;44.804;10.220;2023-07-22T07:02:35;15.88;;;11.43;;
58468;SDS011;44257;44.804;10.220;2023-07-22T07:05:01;18.60;;;10.77;;
58468;SDS011;44257;44.804;10.220;2023-07-22T07:07:27;18.80;;;11.95;;
58468;SDS011;44257;44.804;10.220;2023-07-22T07:09:53;16.98;;;11.57;;
58468;SDS011;44257;44.804;10.220;2023-07-22T07:12:19;17.58;;;11.68;;
58468;SDS011;44257;44.804;10.220;2023-07-22T07:14:45;17.73;;;12.07;;
58468;SDS011;44257;44.804;10.220;2023-07-22T07:17:11;17.48;;;12.07;;
58468;SDS011;44257;44.804;10.220;2023-07-22T07:19:37;18.80;;;13.45;;
58468;SDS011;44257;44.804;10.220;2023-07-22T07:22:03;19.92;;;13.43;;
58468;SDS011;44257;44.804;10.220;2023-07-22T07:24:29;23.85;;;13.07;;
58468;SDS011;44257;44.804;10.220;2023-07-22T07:26:55;18.63;;;11.80;;
58468;SDS011;44257;44.804;10.220;2023-07-22T07:29:21;18.23;;;11.95;;
58468;SDS011;44257;44.804;10.220;2023-07-22T07:31:47;20.20;;;13.20;;
58468;SDS011;44257;44.804;10.220;2023-07-22T07:34:13;20.27;;;13.20;;
58468;SDS011;44257;44.804;10.220;2023-07-22T07:36:38;21.83;;;13.80;;
58468;SDS011;44257;44.804;10.220;2023-07-22T07:39:05;17.45;;;12.10;;
58468;SDS011;44257;44.804;10.220;2023-07-22T07:41:31;20.90;;;11.20;;
58468;SDS011;44257;44.804;10.220;2023-07-22T07:43:57;26.33;;;13.20;;
58468;SDS011;44257;44.804;10.220;2023-07-22T07:46:23;17.55;;;11.55;;
58468;SDS011;44257;44.804;10.220;2023-07-22T07:48:56;17.35;;;12.55;;
58468;SDS011;44257;44.804;10.220;2023-07-22T07:51:24;18.40;;;12.32;;
58468;SDS011;44257;44.804;10.220;2023-07-22T07:53:52;19.60;;;12.52;;
58468;SDS011;44257;44.804;10.220;2023-07-22T07:56:19;17.88;;;12.05;;
58468;SDS011;44257;44.804;10.220;2023-07-22T07:58:46;16.90;;;11.57;;
58468;SDS011;44257;44.804;10.220;2023-07-22T08:01:13;15.75;;;12.27;;
58468;SDS011;44257;44.804;10.220;2023-07-22T08:03:40;18.60;;;12.50;;
58468;SDS011;44257;44.804;10.220;2023-07-22T08:06:07;15.57;;;11.55;;
58468;SDS011;44257;44.804;10.220;2023-07-22T08:08:34;18.95;;;12.63;;
58468;SDS011;44257;44.804;10.220;2023-07-22T08:11:10;17.73;;;12.43;;
58468;SDS011;44257;44.804;10.220;2023-07-22T08:13:42;18.17;;;11.25;;
58468;SDS011;44257;44.804;10.220;2023-07-22T08:16:09;18.00;;;12.02;;
58468;SDS011;44257;44.804;10.220;2023-07-22T08:18:37;19.30;;;12.55;;
58468;SDS011;44257;44.804;10.220;2023-07-22T08:21:03;21.85;;;12.43;;
58468;SDS011;44257;44.804;10.220;2023-07-22T08:23:32;16.45;;;10.27;;
58468;SDS011;44257;44.804;10.220;2023-07-22T08:25:58;18.45;;;12.07;;
58468;SDS011;44257;44.804;10.220;2023-07-22T08:28:24;17.38;;;10.95;;
58468;SDS011;44257;44.804;10.220;2023-07-22T08:30:53;18.65;;;12.40;;
58468;SDS011;44257;44.804;10.220;2023-07-22T08:33:21;18.10;;;10.98;;
58468;SDS011;44257;44.804;10.220;2023-07-22T08:35:47;20.00;;;12.55;;
58468;SDS011;44257;44.804;10.220;2023-07-22T08:38:13;19.23;;;12.75;;
58468;SDS011;44257;44.804;10.220;2023-07-22T08:40:40;20.15;;;12.30;;
58468;SDS011;44257;44.804;10.220;2023-07-22T08:43:07;16.98;;;11.07;;
58468;SDS011;44257;44.804;10.220;2023-07-22T08:45:35;17.02;;;11.10;;
58468;SDS011;44257;44.804;10.220;2023-07-22T08:48:03;16.02;;;11.00;;
58468;SDS011;44257;44.804;10.220;2023-07-22T08:53:11;16.00;;;10.55;;
58468;SDS011;44257;44.804;10.220;2023-07-22T08:55:38;19.30;;;10.93;;
58468;SDS011;44257;44.804;10.220;2023-07-22T08:58:10;18.88;;;11.95;;
58468;SDS011;44257;44.804;10.220;2023-07-22T09:00:37;20.13;;;10.50;;
58468;SDS011;44257;44.804;10.220;2023-07-22T09:03:04;17.42;;;10.18;;
58468;SDS011;44257;44.804;10.220;2023-07-22T09:05:33;15.45;;;9.73;;
58468;SDS011;44257;44.804;10.220;2023-07-22T09:08:01;15.00;;;9.65;;
58468;SDS011;44257;44.804;10.220;2023-07-22T09:10:28;15.40;;;9.50;;
58468;SDS011;44257;44.804;10.220;2023-07-22T09:12:55;12.57;;;9.00;;
58468;SDS011;44257;44.804;10.220;2023-07-22T09:15:21;15.20;;;9.60;;
58468;SDS011;44257;44.804;10.220;2023-07-22T09:17:48;16.25;;;9.55;;
58468;SDS011;44257;44.804;10.220;2023-07-22T09:20:15;14.13;;;8.38;;
58468;SDS011;44257;44.804;10.220;2023-07-22T09:22:44;14.80;;;8.70;;
58468;SDS011;44257;44.804;10.220;2023-07-22T09:25:12;14.52;;;9.38;;
58468;SDS011;44257;44.804;10.220;2023-07-22T09:27:48;13.98;;;8.32;;
58468;SDS011;44257;44.804;10.220;2023-07-22T09:32:47;13.57;;;7.85;;
58468;SDS011;44257;44.804;10.220;2023-07-22T09:35:13;12.98;;;8.93;;
58468;SDS011;44257;44.804;10.220;2023-07-22T09:37:39;12.25;;;7.55;;
58468;SDS011;44257;44.804;10.220;2023-07-22T09:40:14;12.73;;;7.45;;
58468;SDS011;44257;44.804;10.220;2023-07-22T09:42:45;11.25;;;7.65;;
58468;SDS011;44257;44.804;10.220;2023-07-22T09:45:12;11.30;;;8.00;;
58468;SDS011;44257;44.804;10.220;2023-07-22T09:47:42;16.85;;;9.40;;
58468;SDS011;44257;44.804;10.220;2023-07-22T09:50:16;12.50;;;7.57;;
58468;SDS011;44257;44.804;10.220;2023-07-22T09:52:50;9.13;;;6.85;;
58468;SDS011;44257;44.804;10.220;2023-07-22T09:55:23;11.07;;;7.10;;
58468;SDS011;44257;44.804;10.220;2023-07-22T09:57:50;10.07;;;6.90;;
58468;SDS011;44257;44.804;10.220;2023-07-22T10:00:25;12.75;;;6.45;;
58468;SDS011;44257;44.804;10.220;2023-07-22T10:02:58;10.73;;;6.43;;
58468;SDS011;44257;44.804;10.220;2023-07-22T10:05:25;12.27;;;5.93;;
58468;SDS011;44257;44.804;10.220;2023-07-22T10:07:53;11.73;;;6.63;;
58468;SDS011;44257;44.804;10.220;2023-07-22T10:10:33;11.13;;;6.65;;
58468;SDS011;44257;44.804;10.220;2023-07-22T10:13:08;10.73;;;5.80;;
58468;SDS011;44257;44.804;10.220;2023-07-22T10:15:35;10.73;;;5.45;;
58468;SDS011;44257;44.804;10.220;2023-07-22T10:18:02;9.75;;;5.65;;
58468;SDS011;44257;44.804;10.220;2023-07-22T10:20:30;7.97;;;5.15;;
58468;SDS011;44257;44.804;10.220;2023-07-22T10:23:00;8.45;;;5.35;;
58468;SDS011;44257;44.804;10.220;2023-07-22T10:25:26;9.20;;;5.43;;
58468;SDS011;44257;44.804;10.220;2023-07-22T10:27:52;7.95;;;4.80;;
58468;SDS011;44257;44.804;10.220;2023-07-22T10:30:19;9.65;;;5.03;;
58468;SDS011;44257;44.804;10.220;2023-07-22T10:32:46;8.18;;;5.10;;
58468;SDS011;44257;44.804;10.220;2023-07-22T10:35:17;10.80;;;5.68;;
58468;SDS011;44257;44.804;10.220;2023-07-22T10:37:55;9.85;;;5.57;;
58468;SDS011;44257;44.804;10.220;2023-07-22T10:43:05;10.13;;;5.28;;
58468;SDS011;44257;44.804;10.220;2023-07-22T10:45:33;8.30;;;5.25;;
58468;SDS011;44257;44.804;10.220;2023-07-22T10:48:11;12.55;;;5.60;;
58468;SDS011;44257;44.804;10.220;2023-07-22T10:50:51;12.73;;;5.13;;
58468;SDS011;44257;44.804;10.220;2023-07-22T10:58:31;10.55;;;5.07;;
58468;SDS011;44257;44.804;10.220;2023-07-22T11:06:56;8.88;;;4.85;;
58468;SDS011;44257;44.804;10.220;2023-07-22T11:14:26;8.23;;;4.10;;
58468;SDS011;44257;44.804;10.220;2023-07-22T11:16:56;8.43;;;4.75;;
58468;SDS011;44257;44.804;10.220;2023-07-22T11:19:23;9.73;;;4.20;;
58468;SDS011;44257;44.804;10.220;2023-07-22T11:21:50;12.60;;;4.75;;
58468;SDS011;44257;44.804;10.220;2023-07-22T11:24:17;8.35;;;4.60;;
58468;SDS011;44257;44.804;10.220;2023-07-22T11:26:44;9.00;;;4.60;;
58468;SDS011;44257;44.804;10.220;2023-07-22T11:29:11;13.60;;;5.07;;
58468;SDS011;44257;44.804;10.220;2023-07-22T11:31:38;11.68;;;4.40;;
58468;SDS011;44257;44.804;10.220;2023-07-22T11:34:08;9.20;;;4.60;;
58468;SDS011;44257;44.804;10.220;2023-07-22T11:36:34;10.18;;;5.10;;
58468;SDS011;44257;44.804;10.220;2023-07-22T11:39:05;10.43;;;4.97;;
58468;SDS011;44257;44.804;10.220;2023-07-22T11:41:32;19.77;;;5.50;;
58468;SDS011;44257;44.804;10.220;2023-07-22T11:43:59;27.80;;;5.80;;
58468;SDS011;44257;44.804;10.220;2023-07-22T11:46:26;16.48;;;5.70;;
58468;SDS011;44257;44.804;10.220;2023-07-22T11:48:53;9.23;;;4.80;;
58468;SDS011;44257;44.804;10.220;2023-07-22T11:51:20;12.40;;;4.60;;
58468;SDS011;44257;44.804;10.220;2023-07-22T11:53:48;12.02;;;4.97;;
58468;SDS011;44257;44.804;10.220;2023-07-22T11:56:22;7.90;;;4.53;;
58468;SDS011;44257;44.804;10.220;2023-07-22T11:58:56;12.35;;;4.53;;
58468;SDS011;44257;44.804;10.220;2023-07-22T12:01:22;11.65;;;4.97;;
58468;SDS011;44257;44.804;10.220;2023-07-22T12:03:49;7.22;;;4.03;;
58468;SDS011;44257;44.804;10.220;2023-07-22T12:06:20;7.63;;;4.38;;
58468;SDS011;44257;44.804;10.220;2023-07-22T12:08:51;9.27;;;4.50;;
58468;SDS011;44257;44.804;10.220;2023-07-22T12:11:18;8.02;;;4.50;;
58468;SDS011;44257;44.804;10.220;2023-07-22T12:13:46;8.90;;;4.72;;
58468;SDS011;44257;44.804;10.220;2023-07-22T12:16:20;9.68;;;4.53;;
58468;SDS011;44257;44.804;10.220;2023-07-22T12:18:49;9.13;;;4.82;;
58468;SDS011;44257;44.804;10.220;2023-07-22T12:21:15;8.20;;;4.53;;
58468;SDS011;44257;44.804;10.220;2023-07-22T12:23:41;8.38;;;4.72;;
58468;SDS011;44257;44.804;10.220;2023-07-22T12:26:08;10.98;;;5.80;;
58468;SDS011;44257;44.804;10.220;2023-07-22T12:28:34;8.68;;;5.10;;
58468;SDS011;44257;44.804;10.220;2023-07-22T12:31:00;8.85;;;5.07;;
58468;SDS011;44257;44.804;10.220;2023-07-22T12:33:26;8.23;;;5.13;;
58468;SDS011;44257;44.804;10.220;2023-07-22T12:35:53;10.85;;;5.57;;
58468;SDS011;44257;44.804;10.220;2023-07-22T12:38:19;9.80;;;5.45;;
58468;SDS011;44257;44.804;10.220;2023-07-22T12:40:45;8.15;;;5.35;;
58468;SDS011;44257;44.804;10.220;2023-07-22T12:43:11;10.90;;;5.60;;
58468;SDS011;44257;44.804;10.220;2023-07-22T12:45:37;9.20;;;4.97;;
58468;SDS011;44257;44.804;10.220;2023-07-22T12:48:03;8.50;;;5.90;;
58468;SDS011;44257;44.804;10.220;2023-07-22T12:50:30;11.82;;;5.60;;
58468;SDS011;44257;44.804;10.220;2023-07-22T12:52:57;8.18;;;5.78;;
58468;SDS011;44257;44.804;10.220;2023-07-22T12:55:24;8.43;;;5.40;;
58468;SDS011;44257;44.804;10.220;2023-07-22T12:57:50;10.40;;;5.55;;
58468;SDS011;44257;44.804;10.220;2023-07-22T13:00:16;10.45;;;5.97;;
58468;SDS011;44257;44.804;10.220;2023-07-22T13:02:42;11.93;;;6.00;;
58468;SDS011;44257;44.804;10.220;2023-07-22T13:05:08;11.77;;;5.78;;
58468;SDS011;44257;44.804;10.220;2023-07-22T13:07:34;8.48;;;5.50;;
58468;SDS011;44257;44.804;10.220;2023-07-22T13:10:01;12.25;;;6.93;;
58468;SDS011;44257;44.804;10.220;2023-07-22T13:12:29;9.38;;;6.00;;
58468;SDS011;44257;44.804;10.220;2023-07-22T13:14:55;8.68;;;5.53;;
58468;SDS011;44257;44.804;10.220;2023-07-22T13:17:20;12.65;;;5.82;;
58468;SDS011;44257;44.804;10.220;2023-07-22T13:19:46;10.23;;;5.72;;
58468;SDS011;44257;44.804;10.220;2023-07-22T13:22:12;9.70;;;6.38;;
58468;SDS011;44257;44.804;10.220;2023-07-22T13:24:38;7.63;;;5.38;;
58468;SDS011;44257;44.804;10.220;2023-07-22T13:27:04;10.52;;;6.47;;
58468;SDS011;44257;44.804;10.220;2023-07-22T13:29:31;10.98;;;6.05;;
58468;SDS011;44257;44.804;10.220;2023-07-22T13:31:57;10.98;;;6.00;;
58468;SDS011;44257;44.804;10.220;2023-07-22T13:34:23;9.55;;;5.57;;
58468;SDS011;44257;44.804;10.220;2023-07-22T13:36:48;9.18;;;6.03;;
58468;SDS011;44257;44.804;10.220;2023-07-22T13:39:15;8.88;;;5.35;;
58468;SDS011;44257;44.804;10.220;2023-07-22T13:41:40;9.75;;;5.95;;
58468;SDS011;44257;44.804;10.220;2023-07-22T13:44:06;12.45;;;5.97;;
58468;SDS011;44257;44.804;10.220;2023-07-22T13:46:32;9.10;;;4.97;;
58468;SDS011;44257;44.804;10.220;2023-07-22T13:48:58;8.68;;;6.28;;
58468;SDS011;44257;44.804;10.220;2023-07-22T13:51:23;9.38;;;5.30;;
58468;SDS011;44257;44.804;10.220;2023-07-22T13:53:49;9.52;;;5.85;;
58468;SDS011;44257;44.804;10.220;2023-07-22T13:56:18;11.40;;;5.63;;
58468;SDS011;44257;44.804;10.220;2023-07-22T13:58:43;9.20;;;5.53;;
58468;SDS011;44257;44.804;10.220;2023-07-22T14:01:09;7.63;;;4.63;;
58468;SDS011;44257;44.804;10.220;2023-07-22T14:03:35;9.25;;;5.70;;
58468;SDS011;44257;44.804;10.220;2023-07-22T14:06:01;8.00;;;5.60;;
58468;SDS011;44257;44.804;10.220;2023-07-22T14:08:26;7.30;;;5.28;;
58468;SDS011;44257;44.804;10.220;2023-07-22T14:10:52;8.93;;;5.32;;
58468;SDS011;44257;44.804;10.220;2023-07-22T14:13:18;9.77;;;5.65;;
58468;SDS011;44257;44.804;10.220;2023-07-22T14:15:44;8.52;;;5.50;;
58468;SDS011;44257;44.804;10.220;2023-07-22T14:18:10;7.95;;;5.47;;
58468;SDS011;44257;44.804;10.220;2023-07-22T14:20:37;9.50;;;5.88;;
58468;SDS011;44257;44.804;10.220;2023-07-22T14:23:03;10.65;;;5.53;;
58468;SDS011;44257;44.804;10.220;2023-07-22T14:25:29;8.02;;;5.25;;
58468;SDS011;44257;44.804;10.220;2023-07-22T14:27:55;8.98;;;6.10;;
58468;SDS011;44257;44.804;10.220;2023-07-22T14:30:21;10.27;;;5.82;;
58468;SDS011;44257;44.804;10.220;2023-07-22T14:32:47;10.13;;;6.30;;
58468;SDS011;44257;44.804;10.220;2023-07-22T14:35:12;9.35;;;5.90;;
58468;SDS011;44257;44.804;10.220;2023-07-22T14:37:38;9.77;;;6.28;;
58468;SDS011;44257;44.804;10.220;2023-07-22T14:40:04;11.45;;;6.53;;
58468;SDS011;44257;44.804;10.220;2023-07-22T14:42:31;9.82;;;6.03;;
58468;SDS011;44257;44.804;10.220;2023-07-22T14:44:56;10.80;;;6.03;;
58468;SDS011;44257;44.804;10.220;2023-07-22T14:47:22;9.70;;;5.60;;